sensor_id;sensor_type;location;lat;lon;timestamp;pressure;altitude;pressure_sealevel;temperature;humidity
24390;BME280;12510;56.468;-3.004;2023-04-05T00:00:31;100849.94;;;11.35;100.00
24390;BME280;12510;56.468;-3.004;2023-04-05T00:02:59;100845.16;;;11.19;100.00
24390;BME280;12510;56.468;-3.004;2023-04-05T00:05:28;100845.84;;;11.12;100.00
24390;BME280;12510;56.468;-3.004;2023-04-05T00:08:05;100841.88;;;11.37;100.00
24390;BME280;12510;56.468;-3.004;2023-04-05T00:10:38;100835.94;;;11.45;100.00
24390;BME280;12510;56.468;-3.004;2023-04-05T00:13:07;100825.16;;;13.10;100.00
24390;BME280;12510;56.468;-3.004;2023-04-05T00:15:34;100804.66;;;14.72;100.00
24390;BME280;12510;56.468;-3.004;2023-04-05T00:18:01;100799.03;;;14.84;100.00
24390;BME280;12510;56.468;-3.004;2023-04-05T00:20:28;100790.81;;;14.95;100.00
24390;BME280;12510;56.468;-3.004;2023-04-05T00:22:55;100792.81;;;15.01;100.00
24390;BME280;12510;56.468;-3.004;2023-04-05T00:25:24;100788.88;;;15.14;100.00
24390;BME280;12510;56.468;-3.004;2023-04-05T00:27:52;100798.28;;;14.04;100.00
24390;BME280;12510;56.468;-3.004;2023-04-05T00:30:18;100785.63;;;14.51;100.00
24390;BME280;12510;56.468;-3.004;2023-04-05T00:32:50;100790.91;;;14.77;100.00
24390;BME280;12510;56.468;-3.004;2023-04-05T00:35:17;100784.81;;;14.58;100.00
24390;BME280;12510;56.468;-3.004;2023-04-05T00:37:45;100785.69;;;14.59;100.00
24390;BME280;12510;56.468;-3.004;2023-04-05T00:40:12;100784.00;;;14.93;100.00
24390;BME280;12510;56.468;-3.004;2023-04-05T00:42:39;100768.81;;;15.11;100.00
24390;BME280;12510;56.468;-3.004;2023-04-05T00:45:06;100774.06;;;15.03;100.00
24390;BME280;12510;56.468;-3.004;2023-04-05T00:47:33;100773.75;;;14.98;100.00
24390;BME280;12510;56.468;-3.004;2023-04-05T00:49:59;100772.28;;;15.12;100.00
24390;BME280;12510;56.468;-3.004;2023-04-05T00:52:26;100770.44;;;15.12;100.00
24390;BME280;12510;56.468;-3.004;2023-04-05T00:54:53;100769.97;;;15.25;100.00
24390;BME280;12510;56.468;-3.004;2023-04-05T00:57:20;100771.66;;;15.26;100.00
24390;BME280;12510;56.468;-3.004;2023-04-05T00:59:46;100774.44;;;14.65;100.00
24390;BME280;12510;56.468;-3.004;2023-04-05T01:02:30;100760.34;;;15.24;100.00
24390;BME280;12510;56.468;-3.004;2023-04-05T01:05:11;100774.19;;;14.77;100.00
24390;BME280;12510;56.468;-3.004;2023-04-05T01:07:53;100763.56;;;14.68;100.00
24390;BME280;12510;56.468;-3.004;2023-04-05T01:10:32;100766.78;;;14.97;100.00
24390;BME280;12510;56.468;-3.004;2023-04-05T01:13:05;100767.50;;;14.64;100.00
24390;BME280;12510;56.468;-3.004;2023-04-05T01:15:32;100771.66;;;14.67;100.00
24390;BME280;12510;56.468;-3.004;2023-04-05T01:17:59;100761.34;;;15.15;100.00
24390;BME280;12510;56.468;-3.004;2023-04-05T01:20:33;100761.03;;;15.26;100.00
24390;BME280;12510;56.468;-3.004;2023-04-05T01:26:32;100753.19;;;15.08;100.00
24390;BME280;12510;56.468;-3.004;2023-04-05T01:29:21;100741.78;;;15.24;100.00
24390;BME280;12510;56.468;-3.004;2023-04-05T01:34:55;100738.78;;;15.19;100.00
24390;BME280;12510;56.468;-3.004;2023-04-05T01:37:29;100738.31;;;15.07;100.00
24390;BME280;12510;56.468;-3.004;2023-04-05T01:39:56;100731.25;;;14.73;100.00
24390;BME280;12510;56.468;-3.004;2023-04-05T01:42:26;100724.47;;;14.79;100.00
24390;BME280;12510;56.468;-3.004;2023-04-05T01:44:55;100724.97;;;14.82;100.00
24390;BME280;12510;56.468;-3.004;2023-04-05T01:47:22;100716.22;;;14.98;100.00
24390;BME280;12510;56.468;-3.004;2023-04-05T01:49:49;100707.47;;;14.98;100.00
24390;BME280;12510;56.468;-3.004;2023-04-05T01:52:18;100706.66;;;15.30;100.00
24390;BME280;12510;56.468;-3.004;2023-04-05T01:54:47;100711.09;;;15.21;100.00
24390;BME280;12510;56.468;-3.004;2023-04-05T01:57:13;100704.81;;;15.31;100.00
24390;BME280;12510;56.468;-3.004;2023-04-05T01:59:41;100699.34;;;15.24;100.00
24390;BME280;12510;56.468;-3.004;2023-04-05T02:02:10;100701.34;;;15.22;100.00
24390;BME280;12510;56.468;-3.004;2023-04-05T02:04:38;100699.34;;;15.32;100.00
24390;BME280;12510;56.468;-3.004;2023-04-05T02:07:09;100689.56;;;15.24;100.00
24390;BME280;12510;56.468;-3.004;2023-04-05T02:09:35;100690.41;;;15.17;100.00
24390;BME280;12510;56.468;-3.004;2023-04-05T02:12:05;100688.56;;;15.09;100.00
24390;BME280;12510;56.468;-3.004;2023-04-05T02:14:31;100675.13;;;15.19;100.00
24390;BME280;12510;56.468;-3.004;2023-04-05T02:16:59;100682.56;;;14.99;100.00
24390;BME280;12510;56.468;-3.004;2023-04-05T02:19:28;100677.63;;;15.04;100.00
24390;BME280;12510;56.468;-3.004;2023-04-05T02:22:06;100676.16;;;15.26;100.00
24390;BME280;12510;56.468;-3.004;2023-04-05T02:24:34;100673.81;;;15.06;100.00
24390;BME280;12510;56.468;-3.004;2023-04-05T02:27:02;100672.00;;;15.07;100.00
24390;BME280;12510;56.468;-3.004;2023-04-05T02:29:28;100664.53;;;15.27;100.00
24390;BME280;12510;56.468;-3.004;2023-04-05T02:31:58;100663.03;;;15.33;100.00
24390;BME280;12510;56.468;-3.004;2023-04-05T02:34:25;100666.03;;;15.46;100.00
24390;BME280;12510;56.468;-3.004;2023-04-05T02:36:52;100659.22;;;15.35;100.00
24390;BME280;12510;56.468;-3.004;2023-04-05T02:39:19;100653.91;;;14.86;100.00
24390;BME280;12510;56.468;-3.004;2023-04-05T02:41:45;100667.00;;;14.79;100.00
24390;BME280;12510;56.468;-3.004;2023-04-05T02:44:13;100656.72;;;14.84;100.00
24390;BME280;12510;56.468;-3.004;2023-04-05T02:46:39;100649.59;;;15.09;100.00
24390;BME280;12510;56.468;-3.004;2023-04-05T02:49:06;100642.47;;;15.10;100.00
24390;BME280;12510;56.468;-3.004;2023-04-05T02:51:34;100638.00;;;15.27;100.00
24390;BME280;12510;56.468;-3.004;2023-04-05T02:54:05;100644.16;;;15.19;100.00
24390;BME280;12510;56.468;-3.004;2023-04-05T02:56:35;100636.84;;;15.21;100.00
24390;BME280;12510;56.468;-3.004;2023-04-05T02:59:04;100632.03;;;15.25;100.00
24390;BME280;12510;56.468;-3.004;2023-04-05T03:01:31;100626.06;;;14.98;100.00
24390;BME280;12510;56.468;-3.004;2023-04-05T03:04:02;100625.41;;;14.96;100.00
24390;BME280;12510;56.468;-3.004;2023-04-05T03:06:31;100621.28;;;15.02;100.00
24390;BME280;12510;56.468;-3.004;2023-04-05T03:08:58;100615.13;;;15.09;100.00
24390;BME280;12510;56.468;-3.004;2023-04-05T03:11:28;100612.63;;;15.00;100.00
24390;BME280;12510;56.468;-3.004;2023-04-05T03:13:58;100619.94;;;15.06;100.00
24390;BME280;12510;56.468;-3.004;2023-04-05T03:16:46;100629.34;;;14.67;100.00
24390;BME280;12510;56.468;-3.004;2023-04-05T03:19:23;100619.78;;;14.91;100.00
24390;BME280;12510;56.468;-3.004;2023-04-05T03:22:12;100617.84;;;14.42;100.00
24390;BME280;12510;56.468;-3.004;2023-04-05T03:24:39;100612.91;;;14.55;100.00
24390;BME280;12510;56.468;-3.004;2023-04-05T03:27:10;100605.13;;;14.62;100.00
24390;BME280;12510;56.468;-3.004;2023-04-05T03:30:03;100602.50;;;14.70;100.00
24390;BME280;12510;56.468;-3.004;2023-04-05T03:32:35;100592.56;;;15.30;100.00
24390;BME280;12510;56.468;-3.004;2023-04-05T03:35:11;100589.94;;;15.05;100.00
24390;BME280;12510;56.468;-3.004;2023-04-05T03:37:40;100587.28;;;15.05;100.00
24390;BME280;12510;56.468;-3.004;2023-04-05T03:40:09;100591.09;;;14.78;100.00
24390;BME280;12510;56.468;-3.004;2023-04-05T03:42:36;100593.72;;;14.62;100.00
24390;BME280;12510;56.468;-3.004;2023-04-05T03:45:04;100590.94;;;14.71;100.00
24390;BME280;12510;56.468;-3.004;2023-04-05T03:47:31;100589.69;;;14.41;100.00
24390;BME280;12510;56.468;-3.004;2023-04-05T03:50:00;100586.63;;;14.87;100.00
24390;BME280;12510;56.468;-3.004;2023-04-05T03:52:28;100596.81;;;14.49;100.00
24390;BME280;12510;56.468;-3.004;2023-04-05T03:54:54;100589.25;;;14.70;100.00
24390;BME280;12510;56.468;-3.004;2023-04-05T03:57:24;100585.44;;;14.89;100.00
24390;BME280;12510;56.468;-3.004;2023-04-05T03:59:55;100581.81;;;14.82;100.00
24390;BME280;12510;56.468;-3.004;2023-04-05T04:02:22;100577.69;;;14.71;100.00
24390;BME280;12510;56.468;-3.004;2023-04-05T04:04:49;100568.56;;;14.82;100.00
24390;BME280;12510;56.468;-3.004;2023-04-05T04:07:17;100567.38;;;14.60;100.00
24390;BME280;12510;56.468;-3.004;2023-04-05T04:09:48;100579.41;;;14.38;100.00
24390;BME280;12510;56.468;-3.004;2023-04-05T04:12:14;100564.22;;;14.56;100.00
24390;BME280;12510;56.468;-3.004;2023-04-05T04:14:50;100558.31;;;14.71;100.00
24390;BME280;12510;56.468;-3.004;2023-04-05T04:17:38;100558.63;;;14.68;100.00
24390;BME280;12510;56.468;-3.004;2023-04-05T04:20:25;100550.78;;;14.41;100.00
24390;BME280;12510;56.468;-3.004;2023-04-05T04:23:05;100561.66;;;14.22;100.00
24390;BME280;12510;56.468;-3.004;2023-04-05T04:25:54;100559.22;;;14.45;100.00
24390;BME280;12510;56.468;-3.004;2023-04-05T04:28:39;100549.78;;;14.42;100.00
24390;BME280;12510;56.468;-3.004;2023-04-05T04:31:27;100564.03;;;14.33;100.00
24390;BME280;12510;56.468;-3.004;2023-04-05T04:34:32;100561.41;;;14.58;100.00
24390;BME280;12510;56.468;-3.004;2023-04-05T04:37:27;100549.31;;;14.47;100.00
24390;BME280;12510;56.468;-3.004;2023-04-05T04:40:14;100553.44;;;14.58;100.00
24390;BME280;12510;56.468;-3.004;2023-04-05T04:43:13;100551.00;;;14.65;100.00
24390;BME280;12510;56.468;-3.004;2023-04-05T04:46:04;100554.47;;;14.65;100.00
24390;BME280;12510;56.468;-3.004;2023-04-05T04:49:01;100547.00;;;14.61;100.00
24390;BME280;12510;56.468;-3.004;2023-04-05T04:51:36;100557.88;;;14.24;100.00
24390;BME280;12510;56.468;-3.004;2023-04-05T04:54:04;100547.44;;;14.15;100.00
24390;BME280;12510;56.468;-3.004;2023-04-05T04:56:32;100544.47;;;14.34;100.00
24390;BME280;12510;56.468;-3.004;2023-04-05T04:59:00;100547.28;;;14.24;100.00
24390;BME280;12510;56.468;-3.004;2023-04-05T05:01:28;100550.28;;;14.38;100.00
24390;BME280;12510;56.468;-3.004;2023-04-05T05:03:58;100564.66;;;14.27;100.00
24390;BME280;12510;56.468;-3.004;2023-04-05T05:06:31;100557.38;;;14.29;100.00
24390;BME280;12510;56.468;-3.004;2023-04-05T05:09:00;100553.91;;;14.29;100.00
24390;BME280;12510;56.468;-3.004;2023-04-05T05:11:28;100539.84;;;14.28;100.00
24390;BME280;12510;56.468;-3.004;2023-04-05T05:13:54;100545.78;;;14.30;100.00
24390;BME280;12510;56.468;-3.004;2023-04-05T05:16:24;100545.59;;;14.23;100.00
24390;BME280;12510;56.468;-3.004;2023-04-05T05:18:53;100529.88;;;15.29;100.00
24390;BME280;12510;56.468;-3.004;2023-04-05T05:21:22;100536.09;;;14.80;100.00
24390;BME280;12510;56.468;-3.004;2023-04-05T05:23:59;100536.22;;;14.46;100.00
24390;BME280;12510;56.468;-3.004;2023-04-05T05:26:25;100552.22;;;14.11;100.00
24390;BME280;12510;56.468;-3.004;2023-04-05T05:28:59;100538.16;;;14.11;100.00
24390;BME280;12510;56.468;-3.004;2023-04-05T05:31:30;100528.19;;;14.04;100.00
24390;BME280;12510;56.468;-3.004;2023-04-05T05:33:58;100533.50;;;14.13;100.00
24390;BME280;12510;56.468;-3.004;2023-04-05T05:36:25;100536.66;;;14.16;100.00
24390;BME280;12510;56.468;-3.004;2023-04-05T05:38:53;100532.38;;;14.23;100.00
24390;BME280;12510;56.468;-3.004;2023-04-05T05:41:19;100539.13;;;14.01;100.00
24390;BME280;12510;56.468;-3.004;2023-04-05T05:43:50;100538.16;;;14.19;100.00
24390;BME280;12510;56.468;-3.004;2023-04-05T05:46:16;100529.53;;;14.17;100.00
24390;BME280;12510;56.468;-3.004;2023-04-05T05:48:44;100527.50;;;14.02;100.00
24390;BME280;12510;56.468;-3.004;2023-04-05T05:51:10;100528.81;;;13.98;100.00
24390;BME280;12510;56.468;-3.004;2023-04-05T05:53:39;100517.78;;;14.11;100.00
24390;BME280;12510;56.468;-3.004;2023-04-05T05:56:05;100510.53;;;14.30;100.00
24390;BME280;12510;56.468;-3.004;2023-04-05T05:58:33;100509.38;;;14.32;100.00
24390;BME280;12510;56.468;-3.004;2023-04-05T06:01:00;100513.97;;;14.14;100.00
24390;BME280;12510;56.468;-3.004;2023-04-05T06:03:28;100501.44;;;14.40;100.00
24390;BME280;12510;56.468;-3.004;2023-04-05T06:05:56;100506.44;;;14.60;100.00
24390;BME280;12510;56.468;-3.004;2023-04-05T06:08:24;100516.44;;;14.07;100.00
24390;BME280;12510;56.468;-3.004;2023-04-05T06:10:52;100510.84;;;14.18;100.00
24390;BME280;12510;56.468;-3.004;2023-04-05T06:13:20;100509.69;;;14.21;100.00
24390;BME280;12510;56.468;-3.004;2023-04-05T06:15:46;100512.34;;;14.21;100.00
24390;BME280;12510;56.468;-3.004;2023-04-05T06:18:14;100509.56;;;14.39;100.00
24390;BME280;12510;56.468;-3.004;2023-04-05T06:20:42;100515.81;;;14.13;100.00
24390;BME280;12510;56.468;-3.004;2023-04-05T06:23:10;100509.69;;;14.29;100.00
24390;BME280;12510;56.468;-3.004;2023-04-05T06:25:39;100510.38;;;14.23;100.00
24390;BME280;12510;56.468;-3.004;2023-04-05T06:28:06;100504.13;;;14.65;100.00
24390;BME280;12510;56.468;-3.004;2023-04-05T06:30:33;100509.03;;;14.27;100.00
24390;BME280;12510;56.468;-3.004;2023-04-05T06:32:59;100505.75;;;14.33;100.00
24390;BME280;12510;56.468;-3.004;2023-04-05T06:35:26;100502.41;;;14.23;100.00
24390;BME280;12510;56.468;-3.004;2023-04-05T06:37:54;100488.34;;;14.55;100.00
24390;BME280;12510;56.468;-3.004;2023-04-05T06:40:21;100491.38;;;14.69;100.00
24390;BME280;12510;56.468;-3.004;2023-04-05T06:42:48;100494.47;;;14.48;100.00
24390;BME280;12510;56.468;-3.004;2023-04-05T06:45:20;100498.13;;;14.55;100.00
24390;BME280;12510;56.468;-3.004;2023-04-05T06:47:48;100497.47;;;14.45;100.00
24390;BME280;12510;56.468;-3.004;2023-04-05T06:50:15;100498.31;;;14.53;100.00
24390;BME280;12510;56.468;-3.004;2023-04-05T06:52:42;100493.53;;;14.82;100.00
24390;BME280;12510;56.468;-3.004;2023-04-05T06:55:08;100485.41;;;14.83;100.00
24390;BME280;12510;56.468;-3.004;2023-04-05T06:57:35;100493.63;;;14.22;100.00
24390;BME280;12510;56.468;-3.004;2023-04-05T07:00:02;100483.56;;;14.59;100.00
24390;BME280;12510;56.468;-3.004;2023-04-05T07:02:33;100491.34;;;14.77;100.00
24390;BME280;12510;56.468;-3.004;2023-04-05T07:05:02;100487.53;;;14.80;100.00
24390;BME280;12510;56.468;-3.004;2023-04-05T07:07:32;100494.19;;;14.75;100.00
24390;BME280;12510;56.468;-3.004;2023-04-05T07:09:59;100487.56;;;14.71;100.00
24390;BME280;12510;56.468;-3.004;2023-04-05T07:12:25;100487.72;;;14.70;100.00
24390;BME280;12510;56.468;-3.004;2023-04-05T07:14:54;100487.06;;;14.68;100.00
24390;BME280;12510;56.468;-3.004;2023-04-05T07:17:24;100488.22;;;14.73;100.00
24390;BME280;12510;56.468;-3.004;2023-04-05T07:19:51;100487.72;;;14.70;100.00
24390;BME280;12510;56.468;-3.004;2023-04-05T07:22:18;100493.84;;;14.79;100.00
24390;BME280;12510;56.468;-3.004;2023-04-05T07:24:44;100485.72;;;14.55;100.00
24390;BME280;12510;56.468;-3.004;2023-04-05T07:27:14;100484.72;;;14.56;100.00
24390;BME280;12510;56.468;-3.004;2023-04-05T07:29:40;100488.84;;;14.92;100.00
24390;BME280;12510;56.468;-3.004;2023-04-05T07:32:09;100484.66;;;15.14;100.00
24390;BME280;12510;56.468;-3.004;2023-04-05T07:34:36;100481.03;;;14.99;100.00
24390;BME280;12510;56.468;-3.004;2023-04-05T07:37:04;100482.91;;;14.82;100.00
24390;BME280;12510;56.468;-3.004;2023-04-05T07:39:32;100475.28;;;14.87;100.00
24390;BME280;12510;56.468;-3.004;2023-04-05T07:41:58;100469.13;;;14.95;100.00
24390;BME280;12510;56.468;-3.004;2023-04-05T07:44:25;100474.09;;;15.06;100.00
24390;BME280;12510;56.468;-3.004;2023-04-05T07:46:51;100466.78;;;15.00;100.00
24390;BME280;12510;56.468;-3.004;2023-04-05T07:49:24;100464.63;;;15.12;100.00
24390;BME280;12510;56.468;-3.004;2023-04-05T07:51:55;100467.91;;;15.22;100.00
24390;BME280;12510;56.468;-3.004;2023-04-05T07:54:22;100470.88;;;15.27;100.00
24390;BME280;12510;56.468;-3.004;2023-04-05T07:56:51;100470.13;;;14.94;100.00
24390;BME280;12510;56.468;-3.004;2023-04-05T07:59:18;100464.97;;;14.92;100.00
24390;BME280;12510;56.468;-3.004;2023-04-05T08:01:44;100464.38;;;15.30;100.00
24390;BME280;12510;56.468;-3.004;2023-04-05T08:04:11;100456.91;;;15.33;100.00
24390;BME280;12510;56.468;-3.004;2023-04-05T08:06:40;100459.16;;;15.53;100.00
24390;BME280;12510;56.468;-3.004;2023-04-05T08:09:07;100457.25;;;15.30;100.00
24390;BME280;12510;56.468;-3.004;2023-04-05T08:11:34;100453.16;;;15.19;100.00
24390;BME280;12510;56.468;-3.004;2023-04-05T08:14:01;100451.63;;;15.25;100.00
24390;BME280;12510;56.468;-3.004;2023-04-05T08:16:27;100462.56;;;15.30;100.00
24390;BME280;12510;56.468;-3.004;2023-04-05T08:18:54;100450.53;;;15.51;100.00
24390;BME280;12510;56.468;-3.004;2023-04-05T08:21:27;100460.38;;;15.73;100.00
24390;BME280;12510;56.468;-3.004;2023-04-05T08:24:00;100454.25;;;15.33;100.00
24390;BME280;12510;56.468;-3.004;2023-04-05T08:26:28;100446.09;;;15.74;100.00
24390;BME280;12510;56.468;-3.004;2023-04-05T08:28:54;100451.66;;;15.65;100.00
24390;BME280;12510;56.468;-3.004;2023-04-05T08:31:21;100453.38;;;15.89;100.00
24390;BME280;12510;56.468;-3.004;2023-04-05T08:33:47;100455.28;;;16.03;100.00
24390;BME280;12510;56.468;-3.004;2023-04-05T08:36:14;100457.38;;;16.08;100.00
24390;BME280;12510;56.468;-3.004;2023-04-05T08:38:40;100450.09;;;16.02;100.00
24390;BME280;12510;56.468;-3.004;2023-04-05T08:41:14;100450.22;;;15.85;100.00
24390;BME280;12510;56.468;-3.004;2023-04-05T08:43:56;100451.56;;;15.81;100.00
24390;BME280;12510;56.468;-3.004;2023-04-05T08:46:23;100454.53;;;16.09;100.00
24390;BME280;12510;56.468;-3.004;2023-04-05T08:48:51;100453.00;;;16.15;100.00
24390;BME280;12510;56.468;-3.004;2023-04-05T08:51:19;100456.97;;;15.56;100.00
24390;BME280;12510;56.468;-3.004;2023-04-05T08:53:47;100452.06;;;15.85;100.00
24390;BME280;12510;56.468;-3.004;2023-04-05T08:56:15;100457.44;;;16.00;100.00
24390;BME280;12510;56.468;-3.004;2023-04-05T08:58:46;100464.47;;;15.53;100.00
24390;BME280;12510;56.468;-3.004;2023-04-05T09:01:15;100453.50;;;15.56;100.00
24390;BME280;12510;56.468;-3.004;2023-04-05T09:03:43;100449.75;;;15.42;100.00
24390;BME280;12510;56.468;-3.004;2023-04-05T09:06:11;100452.50;;;15.57;100.00
24390;BME280;12510;56.468;-3.004;2023-04-05T09:08:38;100447.25;;;15.80;100.00
24390;BME280;12510;56.468;-3.004;2023-04-05T09:11:06;100448.22;;;15.87;100.00
24390;BME280;12510;56.468;-3.004;2023-04-05T09:13:32;100446.63;;;15.70;100.00
24390;BME280;12510;56.468;-3.004;2023-04-05T09:16:00;100458.38;;;15.75;100.00
24390;BME280;12510;56.468;-3.004;2023-04-05T09:18:27;100450.84;;;15.96;100.00
24390;BME280;12510;56.468;-3.004;2023-04-05T09:21:08;100450.66;;;15.97;100.00
24390;BME280;12510;56.468;-3.004;2023-04-05T09:23:36;100456.09;;;16.04;100.00
24390;BME280;12510;56.468;-3.004;2023-04-05T09:26:19;100460.94;;;16.23;100.00
24390;BME280;12510;56.468;-3.004;2023-04-05T09:28:49;100449.56;;;16.30;100.00
24390;BME280;12510;56.468;-3.004;2023-04-05T09:31:34;100450.97;;;15.63;100.00
24390;BME280;12510;56.468;-3.004;2023-04-05T09:34:06;100450.78;;;16.04;100.00
24390;BME280;12510;56.468;-3.004;2023-04-05T09:36:34;100446.81;;;16.23;100.00
24390;BME280;12510;56.468;-3.004;2023-04-05T09:41:32;100446.28;;;16.04;100.00
24390;BME280;12510;56.468;-3.004;2023-04-05T09:43:59;100448.75;;;16.06;100.00
24390;BME280;12510;56.468;-3.004;2023-04-05T09:46:35;100447.31;;;15.95;100.00
24390;BME280;12510;56.468;-3.004;2023-04-05T09:49:04;100446.41;;;15.80;100.00
24390;BME280;12510;56.468;-3.004;2023-04-05T09:51:34;100445.09;;;15.84;100.00
24390;BME280;12510;56.468;-3.004;2023-04-05T09:54:05;100448.09;;;15.81;100.00
24390;BME280;12510;56.468;-3.004;2023-04-05T09:56:34;100445.84;;;16.39;100.00
24390;BME280;12510;56.468;-3.004;2023-04-05T10:01:32;100446.38;;;15.88;100.00
24390;BME280;12510;56.468;-3.004;2023-04-05T10:03:59;100442.38;;;16.15;100.00
24390;BME280;12510;56.468;-3.004;2023-04-05T10:06:39;100441.38;;;16.16;100.00
24390;BME280;12510;56.468;-3.004;2023-04-05T10:09:07;100437.50;;;16.42;100.00
24390;BME280;12510;56.468;-3.004;2023-04-05T10:11:35;100443.16;;;16.62;100.00
24390;BME280;12510;56.468;-3.004;2023-04-05T10:14:04;100436.06;;;16.92;100.00
24390;BME280;12510;56.468;-3.004;2023-04-05T10:19:57;100438.81;;;16.99;100.00
24390;BME280;12510;56.468;-3.004;2023-04-05T10:22:35;100432.69;;;17.14;100.00
24390;BME280;12510;56.468;-3.004;2023-04-05T10:25:26;100436.31;;;17.28;100.00
24390;BME280;12510;56.468;-3.004;2023-04-05T10:27:54;100438.53;;;17.39;100.00
24390;BME280;12510;56.468;-3.004;2023-04-05T10:30:33;100425.94;;;17.48;100.00
24390;BME280;12510;56.468;-3.004;2023-04-05T10:33:17;100433.84;;;17.26;100.00
24390;BME280;12510;56.468;-3.004;2023-04-05T10:38:28;100432.50;;;17.00;100.00
24390;BME280;12510;56.468;-3.004;2023-04-05T10:41:09;100432.81;;;16.82;100.00
24390;BME280;12510;56.468;-3.004;2023-04-05T10:43:38;100426.25;;;17.08;100.00
24390;BME280;12510;56.468;-3.004;2023-04-05T10:46:06;100421.81;;;17.30;100.00
24390;BME280;12510;56.468;-3.004;2023-04-05T10:49:02;100424.50;;;17.30;100.00
24390;BME280;12510;56.468;-3.004;2023-04-05T10:51:29;100422.47;;;17.32;100.00
24390;BME280;12510;56.468;-3.004;2023-04-05T10:53:59;100422.47;;;17.32;100.00
24390;BME280;12510;56.468;-3.004;2023-04-05T10:56:27;100412.41;;;17.49;100.00
24390;BME280;12510;56.468;-3.004;2023-04-05T10:58:55;100413.72;;;17.38;100.00
24390;BME280;12510;56.468;-3.004;2023-04-05T11:01:25;100411.81;;;17.47;100.00
24390;BME280;12510;56.468;-3.004;2023-04-05T11:03:54;100410.41;;;17.51;100.00
24390;BME280;12510;56.468;-3.004;2023-04-05T11:08:58;100401.88;;;17.92;100.00
24390;BME280;12510;56.468;-3.004;2023-04-05T11:11:25;100404.66;;;18.06;100.00
24390;BME280;12510;56.468;-3.004;2023-04-05T11:13:54;100400.34;;;18.05;100.00
24390;BME280;12510;56.468;-3.004;2023-04-05T11:16:44;100408.00;;;18.15;100.00
24390;BME280;12510;56.468;-3.004;2023-04-05T11:19:15;100395.97;;;18.25;100.00
24390;BME280;12510;56.468;-3.004;2023-04-05T11:21:42;100400.94;;;18.29;100.00
24390;BME280;12510;56.468;-3.004;2023-04-05T11:24:13;100403.38;;;18.23;100.00
24390;BME280;12510;56.468;-3.004;2023-04-05T11:29:17;100408.00;;;18.43;100.00
24390;BME280;12510;56.468;-3.004;2023-04-05T11:32:04;100394.38;;;18.24;100.00
24390;BME280;12510;56.468;-3.004;2023-04-05T11:34:36;100393.78;;;18.29;100.00
24390;BME280;12510;56.468;-3.004;2023-04-05T11:37:02;100396.94;;;18.39;100.00
24390;BME280;12510;56.468;-3.004;2023-04-05T11:39:30;100389.03;;;18.53;100.00
24390;BME280;12510;56.468;-3.004;2023-04-05T11:42:09;100392.16;;;18.35;100.00
24390;BME280;12510;56.468;-3.004;2023-04-05T11:44:42;100387.38;;;18.23;100.00
24390;BME280;12510;56.468;-3.004;2023-04-05T11:47:11;100386.41;;;18.31;100.00
24390;BME280;12510;56.468;-3.004;2023-04-05T11:49:41;100388.06;;;17.89;100.00
24390;BME280;12510;56.468;-3.004;2023-04-05T11:52:16;100389.47;;;18.06;100.00
24390;BME280;12510;56.468;-3.004;2023-04-05T11:54:44;100388.66;;;18.06;100.00
24390;BME280;12510;56.468;-3.004;2023-04-05T11:57:18;100390.34;;;18.14;100.00
24390;BME280;12510;56.468;-3.004;2023-04-05T11:59:51;100393.00;;;18.14;100.00
24390;BME280;12510;56.468;-3.004;2023-04-05T12:02:19;100390.47;;;18.27;100.00
24390;BME280;12510;56.468;-3.004;2023-04-05T12:04:56;100397.84;;;18.25;100.00
24390;BME280;12510;56.468;-3.004;2023-04-05T12:07:27;100395.63;;;18.07;100.00
24390;BME280;12510;56.468;-3.004;2023-04-05T12:12:37;100382.56;;;18.69;100.00
24390;BME280;12510;56.468;-3.004;2023-04-05T12:15:06;100376.78;;;18.93;100.00
24390;BME280;12510;56.468;-3.004;2023-04-05T12:17:41;100376.00;;;19.00;100.00
24390;BME280;12510;56.468;-3.004;2023-04-05T12:20:13;100379.97;;;18.82;100.00
24390;BME280;12510;56.468;-3.004;2023-04-05T12:22:44;100376.59;;;18.67;100.00
24390;BME280;12510;56.468;-3.004;2023-04-05T12:25:12;100379.56;;;18.85;100.00
24390;BME280;12510;56.468;-3.004;2023-04-05T12:27:39;100371.00;;;18.90;100.00
24390;BME280;12510;56.468;-3.004;2023-04-05T12:42:40;100347.41;;;19.49;100.00
24390;BME280;12510;56.468;-3.004;2023-04-05T12:46:36;100353.53;;;19.29;100.00
24390;BME280;12510;56.468;-3.004;2023-04-05T12:57:33;100346.59;;;19.55;100.00
24390;BME280;12510;56.468;-3.004;2023-04-05T13:00:02;100351.75;;;19.70;100.00
24390;BME280;12510;56.468;-3.004;2023-04-05T13:02:30;100351.81;;;19.90;100.00
24390;BME280;12510;56.468;-3.004;2023-04-05T13:05:00;100347.69;;;19.94;100.00
24390;BME280;12510;56.468;-3.004;2023-04-05T13:07:48;100349.34;;;19.88;100.00
24390;BME280;12510;56.468;-3.004;2023-04-05T13:10:17;100348.25;;;19.49;100.00
24390;BME280;12510;56.468;-3.004;2023-04-05T13:12:44;100337.81;;;19.74;100.00
24390;BME280;12510;56.468;-3.004;2023-04-05T13:15:11;100337.59;;;19.69;100.00
24390;BME280;12510;56.468;-3.004;2023-04-05T13:17:43;100338.81;;;19.60;100.00
24390;BME280;12510;56.468;-3.004;2023-04-05T13:20:16;100341.09;;;19.76;100.00
24390;BME280;12510;56.468;-3.004;2023-04-05T13:22:44;100339.00;;;19.58;100.00
24390;BME280;12510;56.468;-3.004;2023-04-05T13:25:14;100346.00;;;19.66;100.00
24390;BME280;12510;56.468;-3.004;2023-04-05T13:27:41;100342.50;;;19.72;100.00
24390;BME280;12510;56.468;-3.004;2023-04-05T13:30:08;100338.03;;;20.06;100.00
24390;BME280;12510;56.468;-3.004;2023-04-05T13:32:37;100338.03;;;20.00;100.00
24390;BME280;12510;56.468;-3.004;2023-04-05T13:35:08;100333.53;;;20.14;100.00